This is the latest recevied weather packets stored in our database for station/object SQ8AQL-16. If no packets are shown the sender has not sent any weather packets the latest 10 day(s).
| Time | Temp. | Humidity | Pressure | Rain* | Wind** | Luminosity | Snow |
|---|---|---|---|---|---|---|---|
| 1777720486 | 28.89° C | 20% | 1026.2 hPa | - | - | 898 W/m² | - |
| 1777719585 | 28.89° C | 19% | 1026.3 hPa | - | - | 875 W/m² | - |
| 1777718684 | 29.44° C | 20% | 1026.6 hPa | - | - | 766 W/m² | - |
| 1777717783 | 28.33° C | 22% | 1026.6 hPa | - | - | 808 W/m² | - |
| 1777716882 | 26.11° C | 23% | 1026.7 hPa | - | - | 763 W/m² | - |
| 1777715981 | 25.56° C | 25% | 1026.8 hPa | - | - | 753 W/m² | - |
| 1777715080 | 21.67° C | 29% | 1027 hPa | - | - | 724 W/m² | - |
| 1777714179 | 18.89° C | 36% | 1027.1 hPa | - | - | 101 W/m² | - |
| 1777713279 | 17.78° C | 37% | 1027.2 hPa | - | - | 49 W/m² | - |
| 1777712378 | 17.22° C | 41% | 1027.3 hPa | - | - | 58 W/m² | - |
| 1777711477 | 16.67° C | 44% | 1027.5 hPa | - | - | 52 W/m² | - |
| 1777710576 | 16.11° C | 45% | 1027.5 hPa | - | - | 51 W/m² | - |
| 1777709674 | 15.56° C | 46% | 1027.7 hPa | - | - | 35 W/m² | - |
| 1777708770 | 15° C | 47% | 1027.8 hPa | - | - | 30 W/m² | - |
| 1777707869 | 14.44° C | 49% | 1027.8 hPa | - | - | 28 W/m² | - |
| 1777706968 | 14.44° C | 51% | 1027.9 hPa | - | - | 27 W/m² | - |
| 1777706066 | 13.33° C | 53% | 1027.8 hPa | - | - | 26 W/m² | - |
| 1777705166 | 12.78° C | 58% | 1027.9 hPa | - | - | 25 W/m² | - |
| 1777704264 | 12.22° C | 60% | 1027.9 hPa | - | - | 24 W/m² | - |
| 1777703363 | 11.67° C | 61% | 1027.9 hPa | - | - | 23 W/m² | - |
| 1777702462 | 11.11° C | 63% | 1027.9 hPa | - | - | 22 W/m² | - |
| 1777701561 | 10.56° C | 64% | 1027.8 hPa | - | - | 21 W/m² | - |
| 1777700660 | 9.44° C | 67% | 1027.8 hPa | - | - | 20 W/m² | - |
| 1777699759 | 8.33° C | 71% | 1027.8 hPa | - | - | 19 W/m² | - |
| 1777698858 | 7.78° C | 73% | 1027.8 hPa | - | - | 18 W/m² | - |
* Rain since midnight (hover to see other rain measurements)
** Current wind speed in m/s (hover to see current wind gust speed)